Time;durP1;ratioP1;P1;durP2;ratioP2;P2;SDS_P1;SDS_P2;PMS_P1;PMS_P2;Temp;Humidity;BMP_temperature;BMP_pressure;BME280_temperature;BME280_humidity;BME280_pressure;Samples;Min_cycle;Max_cycle;Signal;HPM_P1;HPM_P2
2022/06/29 00:02:21;;;;;;;1.60;1.00;;;;;;;;;;5012689;28;20425;-79
2022/06/29 00:04:46;;;;;;;3.67;1.15;;;;;;;;;;4996025;28;20025;-79
2022/06/29 00:07:12;;;;;;;2.35;1.30;;;;;;;;;;4996133;28;20029;-79
2022/06/29 00:09:37;;;;;;;1.25;1.10;;;;;;;;;;5013750;28;20033;-79
2022/06/29 00:12:03;;;;;;;2.70;1.35;;;;;;;;;;5013814;28;20049;-79
2022/06/29 00:14:28;;;;;;;2.65;1.20;;;;;;;;;;5012208;28;20030;-79
2022/06/29 00:16:54;;;;;;;3.38;1.10;;;;;;;;;;5013622;28;20034;-79
2022/06/29 00:19:19;;;;;;;2.13;1.25;;;;;;;;;;5012239;28;20022;-79
2022/06/29 00:21:44;;;;;;;5.63;1.30;;;;;;;;;;5013910;28;20029;-79
2022/06/29 00:24:10;;;;;;;1.63;1.30;;;;;;;;;;5013738;28;20116;-79
2022/06/29 00:26:35;;;;;;;1.55;1.17;;;;;;;;;;4995884;28;20404;-79
2022/06/29 00:29:01;;;;;;;2.92;1.40;;;;;;;;;;5012472;28;20030;-79
2022/06/29 00:31:26;;;;;;;2.25;1.38;;;;;;;;;;5012103;28;20029;-79
2022/06/29 00:33:51;;;;;;;4.35;1.70;;;;;;;;;;4996008;28;20485;-79
2022/06/29 00:36:17;;;;;;;1.80;1.58;;;;;;;;;;5012234;28;20384;-79
2022/06/29 00:38:42;;;;;;;4.13;1.60;;;;;;;;;;5013459;28;20040;-79
2022/06/29 00:41:07;;;;;;;2.58;1.42;;;;;;;;;;5013162;28;20117;-79
2022/06/29 00:43:43;;;;;;;1.88;1.20;;;;;;;;;;5011533;28;20088;-79
2022/06/29 00:46:08;;;;;;;1.58;1.20;;;;;;;;;;5011191;28;20033;-79
2022/06/29 00:48:36;;;;;;;2.55;1.33;;;;;;;;;;5012146;28;20038;-80
2022/06/29 00:51:02;;;;;;;2.75;1.25;;;;;;;;;;5011745;28;20022;-80
2022/06/29 00:53:32;;;;;;;3.35;1.17;;;;;;;;;;4995648;28;20072;-80
2022/06/29 00:55:59;;;;;;;1.50;1.20;;;;;;;;;;4995209;28;20080;-80
2022/06/29 00:58:26;;;;;;;1.95;1.23;;;;;;;;;;5011800;28;20037;-80
2022/06/29 01:00:51;;;;;;;2.28;1.17;;;;;;;;;;5011680;28;20033;-81
2022/06/29 01:03:16;;;;;;;1.67;1.25;;;;;;;;;;5011765;28;20100;-80
2022/06/29 01:05:43;;;;;;;3.30;1.30;;;;;;;;;;4995423;28;20493;-80
2022/06/29 01:08:08;;;;;;;4.82;1.25;;;;;;;;;;5012898;28;20026;-80
2022/06/29 01:10:34;;;;;;;3.60;1.30;;;;;;;;;;4995497;28;20117;-80
2022/06/29 01:12:59;;;;;;;9.18;1.50;;;;;;;;;;5013212;28;20174;-80
2022/06/29 01:15:25;;;;;;;2.17;1.33;;;;;;;;;;5013285;28;20046;-80
2022/06/29 01:17:50;;;;;;;3.30;1.30;;;;;;;;;;5011871;28;20105;-80
2022/06/29 01:20:16;;;;;;;2.75;1.20;;;;;;;;;;4995171;28;20477;-80
2022/06/29 01:22:41;;;;;;;3.58;1.20;;;;;;;;;;5011469;28;20033;-80
2022/06/29 01:25:07;;;;;;;2.72;1.40;;;;;;;;;;5013030;28;20111;-80
2022/06/29 01:27:32;;;;;;;1.63;1.30;;;;;;;;;;5011535;28;20110;-80
2022/06/29 01:29:58;;;;;;;1.20;1.10;;;;;;;;;;5011513;28;20356;-80
2022/06/29 01:32:23;;;;;;;1.65;1.27;;;;;;;;;;5012647;28;20040;-80
2022/06/29 01:34:50;;;;;;;3.47;1.48;;;;;;;;;;5011192;28;20408;-80
2022/06/29 01:37:15;;;;;;;1.67;1.23;;;;;;;;;;4995319;28;20385;-80
2022/06/29 01:39:41;;;;;;;3.42;1.40;;;;;;;;;;5011406;28;20096;-80
2022/06/29 01:42:07;;;;;;;1.67;1.40;;;;;;;;;;5011376;28;20037;-80
2022/06/29 01:44:34;;;;;;;1.80;1.38;;;;;;;;;;4994742;28;20054;-80
2022/06/29 01:47:01;;;;;;;3.35;1.73;;;;;;;;;;4995271;28;20045;-80
2022/06/29 01:49:27;;;;;;;5.65;1.52;;;;;;;;;;4995128;28;20179;-80
2022/06/29 01:51:53;;;;;;;3.58;1.60;;;;;;;;;;5011342;28;20436;-80
2022/06/29 01:54:19;;;;;;;2.85;1.52;;;;;;;;;;5012338;28;20030;-80
2022/06/29 01:56:45;;;;;;;3.95;1.65;;;;;;;;;;4994777;28;20030;-80
2022/06/29 01:59:10;;;;;;;2.35;1.40;;;;;;;;;;5016174;28;20025;-80
2022/06/29 02:01:35;;;;;;;3.47;1.77;;;;;;;;;;4998181;28;20065;-79
2022/06/29 02:04:01;;;;;;;2.42;1.60;;;;;;;;;;5016206;28;20037;-79
2022/06/29 02:06:26;;;;;;;2.53;1.30;;;;;;;;;;5016168;28;20041;-79
2022/06/29 02:08:52;;;;;;;2.10;1.40;;;;;;;;;;5016456;28;20049;-79
2022/06/29 02:11:17;;;;;;;2.40;1.58;;;;;;;;;;5014955;28;20080;-79
2022/06/29 02:13:43;;;;;;;3.33;1.60;;;;;;;;;;5014682;28;20034;-79
2022/06/29 02:16:09;;;;;;;2.40;1.40;;;;;;;;;;5014659;28;20034;-79
2022/06/29 02:18:34;;;;;;;2.72;1.55;;;;;;;;;;5016138;28;20034;-80
2022/06/29 02:21:00;;;;;;;3.67;1.70;;;;;;;;;;5014773;28;20149;-80
2022/06/29 02:23:25;;;;;;;1.98;1.45;;;;;;;;;;5014928;28;20045;-79
2022/06/29 02:25:51;;;;;;;2.80;1.48;;;;;;;;;;4998960;28;20022;-79
2022/06/29 02:28:16;;;;;;;2.75;1.60;;;;;;;;;;5016161;28;20025;-79
2022/06/29 02:36:10;;;;;;;2.45;1.38;;;;;;;;;;5015750;28;20041;-80
2022/06/29 02:38:35;;;;;;;1.95;1.50;;;;;;;;;;5015014;28;20034;-80
2022/06/29 02:41:01;;;;;;;1.88;1.50;;;;;;;;;;5014218;28;20030;-80
2022/06/29 02:43:26;;;;;;;6.40;1.50;;;;;;;;;;5014244;28;20072;-79
2022/06/29 02:45:52;;;;;;;2.25;1.48;;;;;;;;;;4997731;28;20050;-79
2022/06/29 02:48:18;;;;;;;2.33;1.30;;;;;;;;;;4997825;28;20054;-79
2022/06/29 02:50:43;;;;;;;2.40;1.40;;;;;;;;;;5014153;28;20030;-79
2022/06/29 02:53:09;;;;;;;2.00;1.40;;;;;;;;;;5014271;28;20041;-80
2022/06/29 02:55:34;;;;;;;1.63;1.20;;;;;;;;;;5015307;28;20022;-79
2022/06/29 02:57:59;;;;;;;2.88;1.63;;;;;;;;;;5014076;28;20045;-79
2022/06/29 03:00:25;;;;;;;4.35;1.48;;;;;;;;;;4997615;28;20076;-79
2022/06/29 03:02:50;;;;;;;2.25;1.50;;;;;;;;;;5014172;28;20495;-80
2022/06/29 03:05:16;;;;;;;3.65;1.42;;;;;;;;;;5015685;28;20022;-80
2022/06/29 03:07:41;;;;;;;1.45;1.35;;;;;;;;;;5014012;28;20380;-80
2022/06/29 03:10:07;;;;;;;2.30;1.50;;;;;;;;;;5014513;28;20040;-80
2022/06/29 03:12:33;;;;;;;1.35;1.00;;;;;;;;;;5015447;28;20061;-80
2022/06/29 03:14:58;;;;;;;1.35;1.25;;;;;;;;;;4997630;28;20105;-80
2022/06/29 03:17:24;;;;;;;2.05;1.40;;;;;;;;;;5013849;28;20088;-79
2022/06/29 03:19:49;;;;;;;1.67;1.23;;;;;;;;;;4997225;28;20465;-80
2022/06/29 03:22:17;;;;;;;2.05;1.30;;;;;;;;;;5015079;28;20040;-79
2022/06/29 03:24:43;;;;;;;1.33;1.23;;;;;;;;;;5015020;28;20535;-80
2022/06/29 03:27:08;;;;;;;2.20;1.45;;;;;;;;;;5014950;28;20038;-79
2022/06/29 03:29:33;;;;;;;2.22;1.30;;;;;;;;;;5014968;28;20112;-79
2022/06/29 03:31:59;;;;;;;2.05;1.40;;;;;;;;;;5014771;28;20394;-80
2022/06/29 03:34:24;;;;;;;1.83;1.20;;;;;;;;;;4997395;28;20477;-80
2022/06/29 03:36:50;;;;;;;1.30;1.20;;;;;;;;;;5015098;28;20473;-80
2022/06/29 03:39:15;;;;;;;1.63;1.30;;;;;;;;;;5013722;28;20125;-79
2022/06/29 03:41:40;;;;;;;2.70;1.77;;;;;;;;;;5014652;28;20551;-80
2022/06/29 03:44:06;;;;;;;1.48;1.30;;;;;;;;;;5013121;28;20065;-80
2022/06/29 03:46:31;;;;;;;1.83;1.40;;;;;;;;;;5015064;28;20030;-80
2022/06/29 03:48:57;;;;;;;1.48;1.30;;;;;;;;;;4980525;28;20030;-79
2022/06/29 03:51:22;;;;;;;1.73;1.20;;;;;;;;;;4997091;28;20397;-80
2022/06/29 03:53:47;;;;;;;2.67;1.35;;;;;;;;;;4996982;28;20034;-80
2022/06/29 03:56:13;;;;;;;3.58;1.65;;;;;;;;;;5014277;28;20512;-81
2022/06/29 03:58:38;;;;;;;1.98;1.35;;;;;;;;;;5012943;28;20387;-80
2022/06/29 04:01:04;;;;;;;4.10;1.42;;;;;;;;;;5013125;28;20033;-80
2022/06/29 04:03:30;;;;;;;2.22;1.30;;;;;;;;;;5013182;28;20022;-81
2022/06/29 04:05:55;;;;;;;2.25;1.40;;;;;;;;;;5014453;28;20482;-80
2022/06/29 04:08:21;;;;;;;2.47;1.40;;;;;;;;;;4996394;28;20018;-81
2022/06/29 04:10:46;;;;;;;2.13;1.30;;;;;;;;;;5014598;28;20041;-80
2022/06/29 04:13:11;;;;;;;2.45;1.55;;;;;;;;;;5014583;28;20030;-81
2022/06/29 04:15:37;;;;;;;3.53;1.50;;;;;;;;;;5013276;28;20396;-81
2022/06/29 04:18:02;;;;;;;1.60;1.20;;;;;;;;;;5014344;28;20030;-80
2022/06/29 04:23:12;;;;;;;1.90;1.27;;;;;;;;;;5012437;28;20044;-81
2022/06/29 04:25:37;;;;;;;2.08;1.42;;;;;;;;;;5013970;28;20369;-79
2022/06/29 04:28:03;;;;;;;4.85;1.63;;;;;;;;;;5012781;28;20040;-82
2022/06/29 04:30:28;;;;;;;3.90;1.52;;;;;;;;;;4996672;28;20092;-83
2022/06/29 04:32:54;;;;;;;8.48;2.45;;;;;;;;;;5013618;28;20092;-82
2022/06/29 04:35:20;;;;;;;3.95;1.80;;;;;;;;;;4995736;28;20026;-84
2022/06/29 04:37:46;;;;;;;7.55;2.08;;;;;;;;;;5014032;28;20034;-83
2022/06/29 04:40:12;;;;;;;5.65;2.20;;;;;;;;;;5012392;28;20091;-83
2022/06/29 04:42:37;;;;;;;4.95;2.17;;;;;;;;;;5012575;28;20057;-83
2022/06/29 04:45:03;;;;;;;9.23;1.98;;;;;;;;;;4995856;28;20401;-81
2022/06/29 04:47:28;;;;;;;6.03;2.03;;;;;;;;;;5012486;28;20095;-82
2022/06/29 04:49:54;;;;;;;3.75;1.75;;;;;;;;;;5013399;28;20041;-84
2022/06/29 04:52:19;;;;;;;5.70;2.10;;;;;;;;;;5013584;28;20534;-80
2022/06/29 04:54:45;;;;;;;5.80;2.05;;;;;;;;;;4995887;28;20034;-82
2022/06/29 04:57:10;;;;;;;4.43;2.17;;;;;;;;;;5012432;28;20030;-83
2022/06/29 04:59:35;;;;;;;8.70;3.67;;;;;;;;;;4996463;28;20087;-84
2022/06/29 05:02:01;;;;;;;19.00;4.55;;;;;;;;;;4996030;28;20034;-84
2022/06/29 05:04:26;;;;;;;25.17;4.88;;;;;;;;;;4996412;28;20044;-84
2022/06/29 05:06:52;;;;;;;19.30;5.05;;;;;;;;;;5013512;28;20057;-85
2022/06/29 05:09:17;;;;;;;15.45;3.63;;;;;;;;;;5013591;28;20038;-84
2022/06/29 05:11:43;;;;;;;14.77;4.18;;;;;;;;;;4996268;28;20106;-83
2022/06/29 05:14:11;;;;;;;14.60;4.85;;;;;;;;;;5013888;28;20025;-83
2022/06/29 05:16:37;;;;;;;15.15;4.40;;;;;;;;;;5000190;28;20057;-84
2022/06/29 05:19:03;;;;;;;15.43;4.30;;;;;;;;;;5028190;28;20014;-85
2022/06/29 05:21:29;;;;;;;10.77;3.53;;;;;;;;;;4999722;28;20034;-83
2022/06/29 05:23:54;;;;;;;11.00;3.58;;;;;;;;;;5029752;28;20094;-83
2022/06/29 05:26:20;;;;;;;11.70;4.07;;;;;;;;;;5016690;28;20046;-82
2022/06/29 05:28:45;;;;;;;12.27;3.20;;;;;;;;;;4998269;28;20022;-82
2022/06/29 05:31:11;;;;;;;7.72;2.65;;;;;;;;;;5026260;28;20149;-82
2022/06/29 05:33:36;;;;;;;3.20;2.05;;;;;;;;;;5001619;28;20041;-84
2022/06/29 05:36:03;;;;;;;4.10;1.80;;;;;;;;;;5019536;28;20033;-83
2022/06/29 05:38:31;;;;;;;3.40;1.90;;;;;;;;;;5018724;28;20029;-82
2022/06/29 05:40:56;;;;;;;3.20;1.88;;;;;;;;;;5019845;28;20030;-82
2022/06/29 05:43:22;;;;;;;7.65;2.20;;;;;;;;;;5018561;28;20034;-83
2022/06/29 05:45:48;;;;;;;3.33;1.65;;;;;;;;;;5020403;28;20077;-82
2022/06/29 05:48:13;;;;;;;6.60;2.30;;;;;;;;;;5003738;28;20169;-83
2022/06/29 05:50:38;;;;;;;6.38;2.00;;;;;;;;;;5018428;28;20397;-82
2022/06/29 05:53:04;;;;;;;5.03;2.08;;;;;;;;;;5018082;28;20096;-82
2022/06/29 05:55:29;;;;;;;8.52;2.33;;;;;;;;;;5018705;28;20036;-81
2022/06/29 05:57:55;;;;;;;3.65;2.05;;;;;;;;;;5002341;28;20097;-82
2022/06/29 06:00:20;;;;;;;5.90;2.30;;;;;;;;;;5020731;28;20465;-83
2022/06/29 06:02:45;;;;;;;3.72;1.80;;;;;;;;;;5018728;28;20048;-82
2022/06/29 06:05:11;;;;;;;4.57;1.60;;;;;;;;;;5020458;28;20045;-84
2022/06/29 06:07:36;;;;;;;3.55;1.83;;;;;;;;;;5020845;28;20069;-83
2022/06/29 06:10:03;;;;;;;3.55;1.98;;;;;;;;;;5019819;28;20026;-81
2022/06/29 06:12:28;;;;;;;3.97;1.67;;;;;;;;;;5020533;28;20037;-83
2022/06/29 06:14:57;;;;;;;5.47;1.65;;;;;;;;;;5019866;28;20038;-81
2022/06/29 06:17:26;;;;;;;6.82;2.00;;;;;;;;;;5019545;28;20404;-82
2022/06/29 06:19:52;;;;;;;4.20;2.05;;;;;;;;;;5019957;28;20034;-81
2022/06/29 06:22:17;;;;;;;5.30;1.95;;;;;;;;;;5020658;28;20469;-82
2022/06/29 06:24:42;;;;;;;7.88;1.83;;;;;;;;;;5018671;28;20026;-86
2022/06/29 06:27:08;;;;;;;3.58;1.75;;;;;;;;;;5018293;28;20469;-87
2022/06/29 06:29:33;;;;;;;4.57;1.58;;;;;;;;;;4987267;28;20033;-85
2022/06/29 06:32:01;;;;;;;5.22;1.90;;;;;;;;;;5020749;28;20097;-85
2022/06/29 06:34:26;;;;;;;2.83;1.40;;;;;;;;;;5018878;28;20050;-85
2022/06/29 06:36:52;;;;;;;5.72;1.52;;;;;;;;;;5000152;28;20022;-85
2022/06/29 06:39:17;;;;;;;4.47;1.40;;;;;;;;;;5000518;28;20030;-85
2022/06/29 06:41:43;;;;;;;2.65;1.20;;;;;;;;;;5017650;28;20113;-86
2022/06/29 06:44:09;;;;;;;2.80;1.30;;;;;;;;;;5001124;28;20057;-85
2022/06/29 06:46:35;;;;;;;5.75;1.55;;;;;;;;;;5018334;28;20018;-87
2022/06/29 06:49:00;;;;;;;1.85;1.27;;;;;;;;;;5001311;28;20033;-85
2022/06/29 06:51:26;;;;;;;6.80;1.50;;;;;;;;;;5000514;28;20042;-84
2022/06/29 06:53:51;;;;;;;4.10;1.70;;;;;;;;;;5000788;28;20060;-83
2022/06/29 06:56:17;;;;;;;5.45;1.42;;;;;;;;;;5002498;28;20444;-84
2022/06/29 06:58:42;;;;;;;6.53;1.90;;;;;;;;;;5003702;28;20026;-81
2022/06/29 07:01:09;;;;;;;4.18;1.60;;;;;;;;;;5022553;28;20049;-83
2022/06/29 07:03:38;;;;;;;9.52;1.77;;;;;;;;;;5021616;28;20388;-83
2022/06/29 07:06:05;;;;;;;7.95;1.70;;;;;;;;;;5017669;28;20055;-82
2022/06/29 07:08:34;;;;;;;8.70;1.83;;;;;;;;;;5015821;28;20481;-82
2022/06/29 07:11:01;;;;;;;4.07;1.25;;;;;;;;;;5017842;28;20057;-82
2022/06/29 07:13:27;;;;;;;3.75;1.23;;;;;;;;;;5014953;28;20042;-81
2022/06/29 07:15:52;;;;;;;3.85;1.60;;;;;;;;;;5014807;28;20084;-82
2022/06/29 07:18:18;;;;;;;8.77;1.67;;;;;;;;;;4998370;28;20084;-82
2022/06/29 07:20:43;;;;;;;6.07;1.40;;;;;;;;;;5016230;28;20470;-82
2022/06/29 07:23:09;;;;;;;5.90;1.70;;;;;;;;;;5015353;28;20484;-82
2022/06/29 07:25:34;;;;;;;3.42;1.38;;;;;;;;;;5014616;28;20474;-82
2022/06/29 07:27:59;;;;;;;1.73;1.48;;;;;;;;;;5016670;28;20113;-83
2022/06/29 07:30:25;;;;;;;4.38;1.38;;;;;;;;;;4998149;28;20045;-82
2022/06/29 07:32:50;;;;;;;4.95;1.33;;;;;;;;;;5015698;28;20030;-82
2022/06/29 07:35:16;;;;;;;3.42;1.40;;;;;;;;;;4998015;28;20038;-82
2022/06/29 07:37:42;;;;;;;5.55;1.30;;;;;;;;;;4998240;28;20080;-82
2022/06/29 07:40:08;;;;;;;3.58;1.30;;;;;;;;;;5014823;28;20029;-83
2022/06/29 07:42:35;;;;;;;2.67;1.30;;;;;;;;;;4989540;28;20025;-81
2022/06/29 07:45:02;;;;;;;2.65;1.30;;;;;;;;;;4998739;28;20052;-81
2022/06/29 07:47:27;;;;;;;1.77;1.20;;;;;;;;;;4998010;28;20436;-83
2022/06/29 07:49:52;;;;;;;1.75;1.30;;;;;;;;;;4998050;28;20041;-82
2022/06/29 07:52:18;;;;;;;2.63;1.23;;;;;;;;;;5015765;28;20048;-83
2022/06/29 07:54:43;;;;;;;3.25;1.10;;;;;;;;;;4997622;28;20488;-83
2022/06/29 07:57:08;;;;;;;2.45;1.10;;;;;;;;;;5014433;28;20148;-82
2022/06/29 07:59:34;;;;;;;1.27;1.10;;;;;;;;;;5014429;28;20034;-83
2022/06/29 08:01:59;;;;;;;1.42;1.15;;;;;;;;;;5015474;28;20392;-82
2022/06/29 08:04:24;;;;;;;1.90;1.20;;;;;;;;;;4981470;28;20069;-81
2022/06/29 08:06:50;;;;;;;7.30;1.40;;;;;;;;;;4997485;28;20037;-82
2022/06/29 08:09:15;;;;;;;3.85;1.15;;;;;;;;;;5015310;28;20033;-83
2022/06/29 08:11:41;;;;;;;3.38;1.20;;;;;;;;;;5013706;28;20045;-83
2022/06/29 08:14:06;;;;;;;1.50;1.10;;;;;;;;;;5013750;28;20046;-83
2022/06/29 08:16:31;;;;;;;2.67;1.40;;;;;;;;;;5013675;28;20395;-83
2022/06/29 08:18:57;;;;;;;1.58;1.20;;;;;;;;;;5014831;28;20026;-83
2022/06/29 08:21:22;;;;;;;1.83;1.10;;;;;;;;;;5013499;28;20034;-83
2022/06/29 08:23:48;;;;;;;1.20;1.10;;;;;;;;;;5013560;28;20092;-83
2022/06/29 08:26:14;;;;;;;2.10;1.30;;;;;;;;;;5014563;28;20053;-83
2022/06/29 08:28:39;;;;;;;1.58;1.05;;;;;;;;;;4997345;28;20461;-83
2022/06/29 08:31:04;;;;;;;2.05;1.20;;;;;;;;;;5014659;28;20508;-83
2022/06/29 08:33:30;;;;;;;2.13;1.35;;;;;;;;;;5014966;28;20079;-83
2022/06/29 08:35:55;;;;;;;2.03;1.30;;;;;;;;;;5013112;28;20137;-83
2022/06/29 08:38:20;;;;;;;1.00;1.00;;;;;;;;;;5013768;28;20041;-82
2022/06/29 08:40:48;;;;;;;1.30;1.02;;;;;;;;;;4996809;28;20037;-82
2022/06/29 08:43:18;;;;;;;2.08;1.20;;;;;;;;;;5013064;28;20034;-81
2022/06/29 08:45:48;;;;;;;1.40;1.20;;;;;;;;;;5012954;28;20038;-82
2022/06/29 08:48:16;;;;;;;5.93;1.35;;;;;;;;;;5013194;28;20022;-83
2022/06/29 08:50:49;;;;;;;1.52;1.13;;;;;;;;;;5013454;28;20029;-82
2022/06/29 08:53:15;;;;;;;2.92;1.10;;;;;;;;;;4997484;28;20026;-86
2022/06/29 08:55:45;;;;;;;2.65;1.20;;;;;;;;;;4997058;28;20033;-86
2022/06/29 08:58:17;;;;;;;1.45;1.17;;;;;;;;;;4997473;28;20117;-86
2022/06/29 09:00:43;;;;;;;1.17;1.10;;;;;;;;;;4997730;28;20026;-86
2022/06/29 09:03:10;;;;;;;2.92;1.20;;;;;;;;;;4996996;28;20041;-86
2022/06/29 09:05:36;;;;;;;1.35;1.00;;;;;;;;;;5013073;28;20026;-85
2022/06/29 09:08:02;;;;;;;1.83;1.20;;;;;;;;;;5012774;28;20018;-87
2022/06/29 09:10:31;;;;;;;1.60;1.30;;;;;;;;;;5019197;28;20100;-86
2022/06/29 09:13:01;;;;;;;1.48;1.08;;;;;;;;;;5014527;28;20057;-85
2022/06/29 09:15:38;;;;;;;2.03;1.20;;;;;;;;;;4982367;28;20554;-86
2022/06/29 09:18:22;;;;;;;1.20;1.10;;;;;;;;;;5013555;28;20057;-86
2022/06/29 09:20:52;;;;;;;2.33;1.02;;;;;;;;;;5013337;28;20472;-86
2022/06/29 09:23:18;;;;;;;1.50;0.90;;;;;;;;;;5013465;28;20116;-86
2022/06/29 09:25:43;;;;;;;2.92;1.40;;;;;;;;;;5014666;28;20109;-86
2022/06/29 09:28:41;;;;;;;1.83;1.30;;;;;;;;;;5015066;28;20172;-85
2022/06/29 09:31:07;;;;;;;1.92;1.15;;;;;;;;;;4991241;28;20050;-86
2022/06/29 09:33:34;;;;;;;2.55;1.30;;;;;;;;;;5013619;28;20030;-88
2022/06/29 09:36:07;;;;;;;4.53;1.20;;;;;;;;;;5014131;28;20053;-81
2022/06/29 09:38:34;;;;;;;19.50;1.90;;;;;;;;;;5013668;28;20037;-82
2022/06/29 09:41:06;;;;;;;8.52;1.95;;;;;;;;;;5014817;28;20080;-81
2022/06/29 09:43:34;;;;;;;7.43;1.40;;;;;;;;;;5013719;28;20038;-81
2022/06/29 09:46:02;;;;;;;3.03;1.38;;;;;;;;;;5012550;28;20065;-79
2022/06/29 09:48:30;;;;;;;6.30;1.27;;;;;;;;;;5013393;28;20045;-79
2022/06/29 09:50:55;;;;;;;6.43;1.75;;;;;;;;;;5013994;28;20037;-80
2022/06/29 09:53:39;;;;;;;4.18;1.45;;;;;;;;;;5013024;28;20396;-80
2022/06/29 09:56:06;;;;;;;4.95;1.52;;;;;;;;;;5014387;28;20485;-81
2022/06/29 09:58:52;;;;;;;4.07;1.50;;;;;;;;;;5013251;28;20499;-81
2022/06/29 10:04:02;;;;;;;5.05;1.75;;;;;;;;;;5026053;28;20076;-81
2022/06/29 10:06:28;;;;;;;3.15;1.58;;;;;;;;;;5026726;28;20026;-81
2022/06/29 10:08:54;;;;;;;4.50;1.40;;;;;;;;;;5009538;28;20124;-80
2022/06/29 10:14:23;;;;;;;2.55;1.42;;;;;;;;;;5021573;28;20034;-81
2022/06/29 10:17:00;;;;;;;2.92;1.33;;;;;;;;;;5019960;28;20038;-79
2022/06/29 10:19:53;;;;;;;5.00;1.15;;;;;;;;;;5017398;28;20029;-80
2022/06/29 10:22:18;;;;;;;2.17;1.17;;;;;;;;;;5024904;28;20121;-81
2022/06/29 10:25:07;;;;;;;5.90;1.40;;;;;;;;;;5024862;28;20489;-81
2022/06/29 10:27:33;;;;;;;3.15;1.70;;;;;;;;;;5020584;28;20025;-81
2022/06/29 10:30:18;;;;;;;3.42;1.20;;;;;;;;;;5018314;28;20037;-81
2022/06/29 10:32:43;;;;;;;3.78;2.00;;;;;;;;;;5018786;28;20084;-79
2022/06/29 10:35:09;;;;;;;6.13;1.92;;;;;;;;;;5018572;28;20109;-80
2022/06/29 10:37:50;;;;;;;6.35;2.35;;;;;;;;;;5017770;28;20380;-82
2022/06/29 10:40:24;;;;;;;6.38;1.80;;;;;;;;;;5016066;28;20025;-80
2022/06/29 10:43:09;;;;;;;5.65;2.20;;;;;;;;;;4999171;28;20397;-81
2022/06/29 10:45:36;;;;;;;8.18;1.92;;;;;;;;;;5016187;28;20050;-84
2022/06/29 10:48:06;;;;;;;3.83;1.73;;;;;;;;;;5017341;28;20401;-83
2022/06/29 10:50:31;;;;;;;7.55;1.98;;;;;;;;;;5016755;28;20398;-82
2022/06/29 10:53:03;;;;;;;4.03;1.60;;;;;;;;;;5016003;28;20088;-84
2022/06/29 10:55:30;;;;;;;8.43;1.63;;;;;;;;;;5016056;28;20037;-85
2022/06/29 10:57:56;;;;;;;3.55;1.42;;;;;;;;;;5000059;28;20144;-83
2022/06/29 11:00:27;;;;;;;3.67;1.40;;;;;;;;;;5016201;28;20107;-83
2022/06/29 11:02:53;;;;;;;6.63;1.65;;;;;;;;;;5020511;28;20022;-85
2022/06/29 11:05:19;;;;;;;2.90;1.52;;;;;;;;;;5017892;28;20037;-83
2022/06/29 11:13:24;;;;;;;4.78;1.60;;;;;;;;;;5036499;28;20053;-81
2022/06/29 11:15:51;;;;;;;1.83;1.20;;;;;;;;;;5035474;28;20022;-82
2022/06/29 11:18:19;;;;;;;2.90;1.60;;;;;;;;;;5032005;28;20120;-81
2022/06/29 11:20:48;;;;;;;3.13;1.60;;;;;;;;;;5001117;28;20064;-81
2022/06/29 11:23:17;;;;;;;3.42;1.42;;;;;;;;;;5017012;28;20026;-80
2022/06/29 11:25:46;;;;;;;2.33;1.20;;;;;;;;;;5020496;28;20034;-80
2022/06/29 11:28:12;;;;;;;3.63;1.42;;;;;;;;;;4983834;28;20100;-78
2022/06/29 11:30:37;;;;;;;2.67;1.35;;;;;;;;;;5015429;28;20029;-82
2022/06/29 11:33:11;;;;;;;1.90;1.10;;;;;;;;;;5016415;28;20029;-79
2022/06/29 11:35:38;;;;;;;1.45;1.23;;;;;;;;;;4999269;28;20021;-79
2022/06/29 11:38:05;;;;;;;2.50;1.30;;;;;;;;;;4998969;28;20389;-81
2022/06/29 11:40:38;;;;;;;2.13;1.10;;;;;;;;;;5015279;28;20029;-79
2022/06/29 11:43:07;;;;;;;0.90;0.90;;;;;;;;;;5015460;28;20025;-81
2022/06/29 11:45:36;;;;;;;5.43;1.40;;;;;;;;;;5018824;28;20114;-82
2022/06/29 11:48:10;;;;;;;6.47;1.20;;;;;;;;;;5018947;28;20026;-82
2022/06/29 11:50:41;;;;;;;;;;;;;;;;;;5001250;28;20026;-83
2022/06/29 11:53:06;;;;;;;1.75;1.10;;;;;;;;;;5015267;28;19948;-82
2022/06/29 11:55:45;;;;;;;2.42;1.17;;;;;;;;;;5014515;28;20022;-81
2022/06/29 11:58:11;;;;;;;2.22;1.50;;;;;;;;;;5014495;28;20172;-82
2022/06/29 12:00:39;;;;;;;3.10;1.35;;;;;;;;;;4999582;28;20551;-82
2022/06/29 12:03:04;;;;;;;1.20;1.10;;;;;;;;;;5015550;28;20087;-82
2022/06/29 12:05:30;;;;;;;1.27;1.17;;;;;;;;;;5015333;28;20491;-81
2022/06/29 12:07:55;;;;;;;4.93;1.38;;;;;;;;;;5013850;28;20022;-78
2022/06/29 12:10:21;;;;;;;2.05;1.15;;;;;;;;;;5014006;28;20042;-79
2022/06/29 12:12:46;;;;;;;3.42;1.20;;;;;;;;;;5013939;28;20092;-78
2022/06/29 12:15:13;;;;;;;1.73;1.02;;;;;;;;;;4997443;28;20034;-78
2022/06/29 12:17:39;;;;;;;1.88;1.20;;;;;;;;;;5014703;28;20025;-78
2022/06/29 12:20:05;;;;;;;4.18;1.40;;;;;;;;;;5013564;28;20060;-78
2022/06/29 12:22:30;;;;;;;2.55;1.23;;;;;;;;;;5014651;28;20037;-78
2022/06/29 12:24:55;;;;;;;1.20;1.10;;;;;;;;;;5013738;28;20515;-78
2022/06/29 12:27:21;;;;;;;2.00;1.30;;;;;;;;;;5013659;28;20030;-79
2022/06/29 12:29:47;;;;;;;2.03;1.40;;;;;;;;;;5014534;28;20046;-80
2022/06/29 12:32:13;;;;;;;2.88;1.30;;;;;;;;;;5014508;28;20036;-82
2022/06/29 12:34:40;;;;;;;5.32;1.30;;;;;;;;;;5013192;28;20030;-81
2022/06/29 12:37:06;;;;;;;1.30;1.20;;;;;;;;;;4997439;28;20037;-81
2022/06/29 12:39:31;;;;;;;2.85;1.63;;;;;;;;;;5013029;28;20120;-78
2022/06/29 12:41:57;;;;;;;1.85;1.20;;;;;;;;;;5013861;28;20138;-78
2022/06/29 12:44:22;;;;;;;4.55;1.50;;;;;;;;;;5014103;28;20572;-77
2022/06/29 12:46:48;;;;;;;6.68;1.52;;;;;;;;;;5014253;28;20037;-78
2022/06/29 12:49:13;;;;;;;1.70;1.30;;;;;;;;;;4996787;28;20045;-79
2022/06/29 12:51:39;;;;;;;1.80;1.17;;;;;;;;;;5013031;28;20030;-78
2022/06/29 12:54:04;;;;;;;2.63;1.10;;;;;;;;;;5014371;28;20037;-79
2022/06/29 12:56:29;;;;;;;5.13;1.70;;;;;;;;;;5012939;28;20473;-80
2022/06/29 12:58:55;;;;;;;4.47;1.38;;;;;;;;;;4980282;28;20029;-79
2022/06/29 13:01:21;;;;;;;3.67;1.40;;;;;;;;;;4996710;28;20039;-79
2022/06/29 13:03:46;;;;;;;1.30;1.20;;;;;;;;;;4980501;28;20501;-79
2022/06/29 13:06:12;;;;;;;2.22;1.38;;;;;;;;;;5015628;28;20030;-80
2022/06/29 13:08:37;;;;;;;4.13;1.40;;;;;;;;;;5014390;28;20029;-79
2022/06/29 13:11:03;;;;;;;2.00;1.30;;;;;;;;;;4981029;28;20033;-80
2022/06/29 13:13:31;;;;;;;2.22;1.25;;;;;;;;;;5013062;28;20471;-81
2022/06/29 13:15:57;;;;;;;1.52;1.30;;;;;;;;;;4997880;28;20037;-81
2022/06/29 13:18:23;;;;;;;3.70;1.70;;;;;;;;;;5012990;28;20036;-79
2022/06/29 13:20:48;;;;;;;2.83;1.13;;;;;;;;;;5013160;28;20034;-80
2022/06/29 13:23:17;;;;;;;10.73;1.80;;;;;;;;;;5014094;28;20096;-79
2022/06/29 13:25:43;;;;;;;2.38;1.38;;;;;;;;;;5012983;28;20030;-78
2022/06/29 13:28:09;;;;;;;6.72;1.38;;;;;;;;;;5012893;28;20095;-79
2022/06/29 13:30:34;;;;;;;6.55;1.73;;;;;;;;;;5015959;28;20484;-80
2022/06/29 13:33:00;;;;;;;5.38;1.60;;;;;;;;;;4996369;28;20022;-79
2022/06/29 13:35:25;;;;;;;3.65;1.70;;;;;;;;;;4996091;28;20108;-78
2022/06/29 13:37:53;;;;;;;2.90;1.30;;;;;;;;;;4980119;28;20033;-78
2022/06/29 13:40:19;;;;;;;4.45;1.40;;;;;;;;;;4980475;28;20065;-79
2022/06/29 13:42:44;;;;;;;6.75;1.75;;;;;;;;;;5012343;28;20058;-79
2022/06/29 13:45:10;;;;;;;4.63;1.80;;;;;;;;;;4995711;28;20058;-79
2022/06/29 13:47:35;;;;;;;3.20;1.58;;;;;;;;;;5012339;28;20076;-79
2022/06/29 13:50:01;;;;;;;3.47;1.35;;;;;;;;;;4995992;28;20029;-78
2022/06/29 13:52:26;;;;;;;2.95;1.65;;;;;;;;;;5013503;28;20030;-78
2022/06/29 13:54:51;;;;;;;2.78;1.50;;;;;;;;;;5016624;28;20033;-80
2022/06/29 13:57:17;;;;;;;4.75;2.00;;;;;;;;;;5017371;28;20026;-80
2022/06/29 13:59:42;;;;;;;6.30;1.50;;;;;;;;;;4999805;28;20030;-81
2022/06/29 14:02:08;;;;;;;5.30;2.05;;;;;;;;;;5016706;28;20036;-80
2022/06/29 14:04:33;;;;;;;4.38;1.70;;;;;;;;;;5017277;28;20029;-81
2022/06/29 14:06:59;;;;;;;8.43;1.75;;;;;;;;;;5016110;28;20029;-80
2022/06/29 14:09:24;;;;;;;4.93;1.92;;;;;;;;;;4999827;28;20429;-80
2022/06/29 14:11:50;;;;;;;4.03;1.52;;;;;;;;;;5017073;28;20377;-80
2022/06/29 14:14:16;;;;;;;3.75;1.52;;;;;;;;;;5017405;28;20396;-79
2022/06/29 14:16:42;;;;;;;2.60;1.52;;;;;;;;;;4983399;28;20030;-79
2022/06/29 14:19:07;;;;;;;4.05;1.60;;;;;;;;;;5015733;28;20037;-78
2022/06/29 14:21:34;;;;;;;4.63;1.70;;;;;;;;;;5015848;28;20473;-78
2022/06/29 14:23:59;;;;;;;3.75;1.33;;;;;;;;;;5001036;28;20026;-78
2022/06/29 14:26:25;;;;;;;2.33;1.30;;;;;;;;;;4999270;28;20041;-80
2022/06/29 14:28:51;;;;;;;1.95;1.52;;;;;;;;;;4999215;28;20022;-80
2022/06/29 14:31:16;;;;;;;4.32;1.65;;;;;;;;;;5015518;28;20061;-80
2022/06/29 14:33:41;;;;;;;3.13;1.40;;;;;;;;;;4999152;28;20033;-80
2022/06/29 14:36:07;;;;;;;3.40;1.65;;;;;;;;;;4999002;28;20396;-80
2022/06/29 14:38:33;;;;;;;2.63;1.67;;;;;;;;;;5015341;28;20030;-80
2022/06/29 14:40:58;;;;;;;2.28;1.38;;;;;;;;;;5015870;28;20045;-80
2022/06/29 14:43:23;;;;;;;2.72;1.60;;;;;;;;;;5016462;28;20034;-81
2022/06/29 14:45:49;;;;;;;3.40;1.33;;;;;;;;;;4998717;28;20100;-82
2022/06/29 14:48:14;;;;;;;3.38;1.70;;;;;;;;;;5016800;28;20113;-81
2022/06/29 14:50:40;;;;;;;14.05;1.77;;;;;;;;;;5016275;28;20030;-81
2022/06/29 14:53:05;;;;;;;3.25;1.42;;;;;;;;;;4998882;28;20084;-81
2022/06/29 14:55:31;;;;;;;6.10;1.50;;;;;;;;;;4998580;28;20123;-80
2022/06/29 14:57:56;;;;;;;1.55;1.30;;;;;;;;;;4999415;28;20025;-81
2022/06/29 15:00:21;;;;;;;3.83;1.42;;;;;;;;;;4998549;28;20393;-80